Time;durP1;ratioP1;P1;durP2;ratioP2;P2;SDS_P1;SDS_P2;PMS_P1;PMS_P2;Temp;Humidity;BMP_temperature;BMP_pressure;BME280_temperature;BME280_humidity;BME280_pressure;Samples;Min_cycle;Max_cycle;Signal;HPM_P1;HPM_P2
2022/08/08 00:01:27;;;;;;;;;11.67;8.00;;;;;;;;4995511;28;45427;-78
2022/08/08 00:03:58;;;;;;;;;13.00;10.67;;;;;;;;4994915;28;46146;-78
2022/08/08 00:06:35;;;;;;;;;7.67;7.67;;;;;;;;5004041;28;45353;-77
2022/08/08 00:09:03;;;;;;;;;8.00;8.00;;;;;;;;5015020;28;45359;-78
2022/08/08 00:11:45;;;;;;;;;12.67;12.33;;;;;;;;5015109;28;45303;-78
2022/08/08 00:14:16;;;;;;;;;12.00;9.00;;;;;;;;5014736;28;46312;-78
2022/08/08 00:16:44;;;;;;;;;9.67;8.33;;;;;;;;5014425;28;45669;-77
2022/08/08 00:19:17;;;;;;;;;13.67;10.67;;;;;;;;5014870;28;45370;-78
2022/08/08 00:21:45;;;;;;;;;10.00;9.33;;;;;;;;5028564;27;45312;-78
2022/08/08 00:24:13;;;;;;;;;10.33;8.67;;;;;;;;5097308;27;46541;-78
2022/08/08 00:26:41;;;;;;;;;11.33;10.67;;;;;;;;5097533;27;45557;-78
2022/08/08 00:29:13;;;;;;;;;11.00;9.00;;;;;;;;5097369;27;45381;-77
2022/08/08 00:31:45;;;;;;;;;10.67;9.00;;;;;;;;5097724;27;45284;-78
2022/08/08 00:37:27;;;;;;;;;11.33;9.67;;;;;;;;5097265;27;45421;-77
2022/08/08 00:40:01;;;;;;;;;8.33;8.00;;;;;;;;5097434;27;45378;-77
2022/08/08 00:42:32;;;;;;;;;12.00;12.00;;;;;;;;5097509;27;45436;-78
2022/08/08 00:45:16;;;;;;;;;12.33;9.00;;;;;;;;5097173;27;45447;-77
2022/08/08 00:47:41;;;;;;;;;18.00;11.33;;;;;;;;5097145;27;45308;-77
2022/08/08 00:50:12;;;;;;;;;12.33;8.00;;;;;;;;5099516;27;45428;-78
2022/08/08 00:52:47;;;;;;;;;10.67;10.33;;;;;;;;5101177;27;45453;-78
2022/08/08 00:55:24;;;;;;;;;9.67;8.33;;;;;;;;5100437;27;46415;-77
2022/08/08 00:57:52;;;;;;;;;9.33;9.00;;;;;;;;5100543;27;45538;-77
2022/08/08 01:00:20;;;;;;;;;12.00;11.00;;;;;;;;5100797;27;45453;-78
2022/08/08 01:02:50;;;;;;;;;13.67;11.33;;;;;;;;5100779;27;45432;-78
2022/08/08 01:05:27;;;;;;;;;11.67;11.67;;;;;;;;5100369;27;47494;-77
2022/08/08 01:08:11;;;;;;;;;13.00;13.00;;;;;;;;5100495;27;45304;-77
2022/08/08 01:10:51;;;;;;;;;12.00;11.33;;;;;;;;5100666;27;45437;-77
2022/08/08 01:13:35;;;;;;;;;13.00;13.00;;;;;;;;5100870;27;45276;-77
2022/08/08 01:16:03;;;;;;;;;10.33;10.33;;;;;;;;5100050;27;45520;-77
2022/08/08 01:18:36;;;;;;;;;12.33;12.33;;;;;;;;5100193;27;45396;-78
2022/08/08 01:21:03;;;;;;;;;17.00;15.00;;;;;;;;5100125;27;45309;-77
2022/08/08 01:23:35;;;;;;;;;14.67;14.67;;;;;;;;5100662;27;45316;-78
2022/08/08 01:26:33;;;;;;;;;15.33;13.67;;;;;;;;5099933;27;45299;-77
2022/08/08 01:29:13;;;;;;;;;14.67;12.67;;;;;;;;5100130;27;45390;-77
2022/08/08 01:31:57;;;;;;;;;15.67;13.67;;;;;;;;5100125;27;45566;-77
2022/08/08 01:34:28;;;;;;;;;24.00;18.67;;;;;;;;5100356;27;45300;-77
2022/08/08 01:36:59;;;;;;;;;13.67;13.00;;;;;;;;5099831;27;45529;-77
2022/08/08 01:39:46;;;;;;;;;15.33;15.33;;;;;;;;5100022;27;45224;-77
2022/08/08 01:42:11;;;;;;;;;21.00;17.33;;;;;;;;5099899;27;45458;-77
2022/08/08 01:44:45;;;;;;;;;13.67;13.67;;;;;;;;5100161;27;45235;-77
2022/08/08 01:47:13;;;;;;;;;13.33;13.33;;;;;;;;5099753;27;46451;-77
2022/08/08 01:49:39;;;;;;;;;18.33;14.33;;;;;;;;5099834;27;45401;-77
2022/08/08 01:52:04;;;;;;;;;22.33;20.33;;;;;;;;5099896;27;45322;-77
2022/08/08 01:54:48;;;;;;;;;21.33;15.67;;;;;;;;5100034;27;45415;-77
2022/08/08 01:57:32;;;;;;;;;17.00;15.00;;;;;;;;5099809;27;46219;-77
2022/08/08 02:00:07;;;;;;;;;21.33;20.33;;;;;;;;5081280;27;45405;-77
2022/08/08 02:02:32;;;;;;;;;20.00;17.33;;;;;;;;5099040;27;45328;-77
2022/08/08 02:05:01;;;;;;;;;20.67;19.00;;;;;;;;5099448;27;45423;-78
2022/08/08 02:07:45;;;;;;;;;16.00;16.00;;;;;;;;5099427;27;46451;-77
2022/08/08 02:10:10;;;;;;;;;15.00;15.00;;;;;;;;5099423;27;45312;-77
2022/08/08 02:12:42;;;;;;;;;16.67;15.33;;;;;;;;5099553;27;45463;-77
2022/08/08 02:15:20;;;;;;;;;20.33;18.00;;;;;;;;5099549;27;45526;-77
2022/08/08 02:17:52;;;;;;;;;20.67;18.00;;;;;;;;5099261;27;46596;-77
2022/08/08 02:20:18;;;;;;;;;16.33;16.33;;;;;;;;5099505;27;45360;-77
2022/08/08 02:22:52;;;;;;;;;20.00;16.67;;;;;;;;5099408;27;45284;-77
2022/08/08 02:25:18;;;;;;;;;18.67;17.67;;;;;;;;5099634;27;45221;-77
2022/08/08 02:27:48;;;;;;;;;23.67;21.00;;;;;;;;5099018;27;45605;-77
2022/08/08 02:30:18;;;;;;;;;21.67;19.33;;;;;;;;5099125;27;45325;-77
2022/08/08 02:32:52;;;;;;;;;16.33;16.33;;;;;;;;5099113;27;45249;-77
2022/08/08 02:35:18;;;;;;;;;26.00;20.00;;;;;;;;5099355;27;45325;-78
2022/08/08 02:37:43;;;;;;;;;21.00;19.67;;;;;;;;5098607;27;47028;-78
2022/08/08 02:40:14;;;;;;;;;21.67;18.67;;;;;;;;5099016;27;45395;-77
2022/08/08 02:42:49;;;;;;;;;22.33;19.33;;;;;;;;5099102;27;45371;-77
2022/08/08 02:45:33;;;;;;;;;23.33;22.00;;;;;;;;5080857;27;45253;-77
2022/08/08 02:48:16;;;;;;;;;25.50;22.50;;;;;;;;5098704;27;46761;-77
2022/08/08 02:50:47;;;;;;;;;24.33;23.33;;;;;;;;5098674;27;45417;-77
2022/08/08 02:53:25;;;;;;;;;26.67;22.33;;;;;;;;5098786;27;45435;-77
2022/08/08 02:56:09;;;;;;;;;23.33;22.00;;;;;;;;5099049;27;45695;-77
2022/08/08 02:58:34;;;;;;;;;26.33;23.33;;;;;;;;5098567;27;45795;-77
2022/08/08 03:01:12;;;;;;;;;26.33;23.33;;;;;;;;5098537;27;45333;-77
2022/08/08 03:03:49;;;;;;;;;27.33;24.67;;;;;;;;5098806;27;45338;-77
2022/08/08 03:06:43;;;;;;;;;30.67;26.33;;;;;;;;5098789;27;45253;-77
2022/08/08 03:09:14;;;;;;;;;28.00;24.33;;;;;;;;5035360;28;46346;-77
2022/08/08 03:11:58;;;;;;;;;29.00;28.33;;;;;;;;5035690;28;45500;-77
2022/08/08 03:14:29;;;;;;;;;30.67;29.67;;;;;;;;5034823;28;45300;-77
2022/08/08 03:17:00;;;;;;;;;29.33;25.00;;;;;;;;5035180;28;45460;-77
2022/08/08 03:19:25;;;;;;;;;31.00;25.67;;;;;;;;5018717;28;46341;-77
2022/08/08 03:21:51;;;;;;;;;34.33;29.67;;;;;;;;5035335;28;45362;-77
2022/08/08 03:24:17;;;;;;;;;38.67;31.33;;;;;;;;5035497;28;45344;-77
2022/08/08 03:26:47;;;;;;;;;45.00;37.00;;;;;;;;5035754;28;45398;-77
2022/08/08 03:29:16;;;;;;;;;37.33;31.33;;;;;;;;5034946;28;46589;-77
2022/08/08 03:34:26;;;;;;;;;29.67;27.00;;;;;;;;5035289;28;45485;-77
2022/08/08 03:36:51;;;;;;;;;33.33;29.00;;;;;;;;5035385;28;45462;-77
2022/08/08 03:39:16;;;;;;;;;25.33;24.67;;;;;;;;5034978;28;45557;-78
2022/08/08 03:41:42;;;;;;;;;30.67;27.67;;;;;;;;5035210;28;45320;-77
2022/08/08 03:44:07;;;;;;;;;35.67;28.00;;;;;;;;5035246;28;45406;-77
2022/08/08 03:46:49;;;;;;;;;37.00;28.33;;;;;;;;5092341;27;45284;-77
2022/08/08 03:49:19;;;;;;;;;32.00;27.00;;;;;;;;5098285;27;46322;-76
2022/08/08 03:51:44;;;;;;;;;43.67;36.67;;;;;;;;5097679;27;45366;-77
2022/08/08 03:54:10;;;;;;;;;35.00;32.00;;;;;;;;5098001;27;45741;-78
2022/08/08 03:56:35;;;;;;;;;33.00;26.33;;;;;;;;5098359;27;45483;-77
2022/08/08 03:59:00;;;;;;;;;39.67;31.67;;;;;;;;5097581;27;46557;-77
2022/08/08 04:01:33;;;;;;;;;33.67;30.00;;;;;;;;5097887;27;45373;-77
2022/08/08 04:03:58;;;;;;;;;32.00;29.00;;;;;;;;5098047;27;45446;-77
2022/08/08 04:06:24;;;;;;;;;32.00;27.67;;;;;;;;5097772;27;45411;-78
2022/08/08 04:08:49;;;;;;;;;37.67;33.00;;;;;;;;5097783;27;45443;-78
2022/08/08 04:11:14;;;;;;;;;27.67;26.67;;;;;;;;5096980;27;45316;-78
2022/08/08 04:13:39;;;;;;;;;32.00;29.00;;;;;;;;5097691;27;45193;-78
2022/08/08 04:16:05;;;;;;;;;30.33;27.33;;;;;;;;5097787;27;45294;-77
2022/08/08 04:18:30;;;;;;;;;30.00;25.67;;;;;;;;5097514;27;46505;-77
2022/08/08 04:20:55;;;;;;;;;35.00;29.67;;;;;;;;5097732;27;45183;-78
2022/08/08 04:23:20;;;;;;;;;34.00;30.33;;;;;;;;5097779;27;45225;-77
2022/08/08 04:25:46;;;;;;;;;30.33;28.33;;;;;;;;5101103;27;45267;-77
2022/08/08 04:28:11;;;;;;;;;36.00;30.33;;;;;;;;5101015;27;45431;-77
2022/08/08 04:30:37;;;;;;;;;32.33;31.00;;;;;;;;5101070;27;45450;-77
2022/08/08 04:33:02;;;;;;;;;38.33;33.33;;;;;;;;5101312;27;45317;-77
2022/08/08 04:35:27;;;;;;;;;34.00;30.67;;;;;;;;5101250;27;45403;-79
2022/08/08 04:37:53;;;;;;;;;42.67;32.00;;;;;;;;5100942;27;45231;-76
2022/08/08 04:40:18;;;;;;;;;36.33;31.33;;;;;;;;5100545;27;45403;-77
2022/08/08 04:42:44;;;;;;;;;43.33;32.00;;;;;;;;5101155;27;45186;-78
2022/08/08 04:45:09;;;;;;;;;37.33;30.00;;;;;;;;5101137;27;45329;-77
2022/08/08 04:47:35;;;;;;;;;33.00;29.33;;;;;;;;5100671;27;46401;-77
2022/08/08 04:50:00;;;;;;;;;36.33;32.33;;;;;;;;5100889;27;45497;-77
2022/08/08 04:52:25;;;;;;;;;34.67;29.00;;;;;;;;5100838;27;45404;-77
2022/08/08 04:54:50;;;;;;;;;36.00;31.33;;;;;;;;5100934;27;45401;-77
2022/08/08 04:57:16;;;;;;;;;30.33;26.67;;;;;;;;5100611;27;45284;-77
2022/08/08 04:59:42;;;;;;;;;36.67;31.33;;;;;;;;5100564;27;45407;-78
2022/08/08 05:02:07;;;;;;;;;39.00;32.00;;;;;;;;5100759;27;45420;-77
2022/08/08 05:04:34;;;;;;;;;32.67;30.67;;;;;;;;5100758;27;45606;-77
2022/08/08 05:06:59;;;;;;;;;42.67;35.67;;;;;;;;5099665;27;46353;-77
2022/08/08 05:09:24;;;;;;;;;33.00;28.33;;;;;;;;5100453;27;45340;-77
2022/08/08 05:11:50;;;;;;;;;30.67;28.00;;;;;;;;5100663;27;45493;-77
2022/08/08 05:14:15;;;;;;;;;38.33;29.67;;;;;;;;5100764;27;45216;-77
2022/08/08 05:16:41;;;;;;;;;31.67;28.33;;;;;;;;5099907;27;45602;-77
2022/08/08 05:19:11;;;;;;;;;43.67;30.00;;;;;;;;5100223;27;45453;-77
2022/08/08 05:21:37;;;;;;;;;36.00;30.67;;;;;;;;5100385;27;45413;-77
2022/08/08 05:24:02;;;;;;;;;31.33;30.00;;;;;;;;5100476;27;45445;-77
2022/08/08 05:26:27;;;;;;;;;34.33;30.00;;;;;;;;5099991;27;45980;-77
2022/08/08 05:28:52;;;;;;;;;39.67;32.00;;;;;;;;5100105;27;45399;-77
2022/08/08 05:31:18;;;;;;;;;35.00;29.33;;;;;;;;5100230;27;45359;-77
2022/08/08 05:33:43;;;;;;;;;32.67;29.67;;;;;;;;5100248;27;45498;-77
2022/08/08 05:36:10;;;;;;;;;32.67;32.00;;;;;;;;5099045;27;45355;-77
2022/08/08 05:38:39;;;;;;;;;38.00;32.00;;;;;;;;5099881;27;45383;-77
2022/08/08 05:41:05;;;;;;;;;34.67;30.33;;;;;;;;5100039;27;45528;-76
2022/08/08 05:43:33;;;;;;;;;36.33;31.67;;;;;;;;5099957;27;45246;-77
2022/08/08 05:46:00;;;;;;;;;31.00;27.33;;;;;;;;5099777;27;47282;-77
2022/08/08 05:48:25;;;;;;;;;35.67;31.33;;;;;;;;5099578;27;45372;-77
2022/08/08 05:50:51;;;;;;;;;32.67;31.00;;;;;;;;5099564;27;45209;-78
2022/08/08 05:53:17;;;;;;;;;37.33;29.00;;;;;;;;5099989;27;45456;-77
2022/08/08 05:55:43;;;;;;;;;31.00;27.33;;;;;;;;5099516;27;46201;-79
2022/08/08 05:58:11;;;;;;;;;31.33;27.67;;;;;;;;5081450;27;45426;-77
2022/08/08 06:00:36;;;;;;;;;30.67;27.33;;;;;;;;5099842;27;45443;-78
2022/08/08 06:03:11;;;;;;;;;28.67;26.00;;;;;;;;5099644;27;45524;-77
2022/08/08 06:05:44;;;;;;;;;31.00;28.00;;;;;;;;5098887;27;46626;-80
2022/08/08 06:08:11;;;;;;;;;29.33;23.33;;;;;;;;5099363;27;45388;-78
2022/08/08 06:10:38;;;;;;;;;31.67;26.33;;;;;;;;5099526;27;45513;-77
2022/08/08 06:13:03;;;;;;;;;32.33;28.00;;;;;;;;5099595;27;45281;-78
2022/08/08 06:15:29;;;;;;;;;31.67;28.33;;;;;;;;5099166;27;46506;-79
2022/08/08 06:17:56;;;;;;;;;23.33;23.33;;;;;;;;5099128;27;45482;-77
2022/08/08 06:20:22;;;;;;;;;26.00;21.00;;;;;;;;5099394;27;45205;-77
2022/08/08 06:22:47;;;;;;;;;27.67;24.67;;;;;;;;5099507;27;45242;-77
2022/08/08 06:25:12;;;;;;;;;32.00;30.67;;;;;;;;5099379;27;46355;-78
2022/08/08 06:27:37;;;;;;;;;30.67;26.33;;;;;;;;5099124;27;45323;-77
2022/08/08 06:30:02;;;;;;;;;40.00;33.00;;;;;;;;5099463;27;45351;-77
2022/08/08 06:32:29;;;;;;;;;32.00;30.67;;;;;;;;5099506;27;45269;-77
2022/08/08 06:34:58;;;;;;;;;25.33;22.67;;;;;;;;5099008;27;46149;-78
2022/08/08 06:37:26;;;;;;;;;26.33;21.00;;;;;;;;5099102;27;45425;-78
2022/08/08 06:39:55;;;;;;;;;25.33;21.67;;;;;;;;5099116;27;45408;-78
2022/08/08 06:42:20;;;;;;;;;23.00;18.33;;;;;;;;5099053;27;45490;-80
2022/08/08 06:44:48;;;;;;;;;23.67;20.33;;;;;;;;5098962;27;46157;-78
2022/08/08 06:47:13;;;;;;;;;25.00;18.00;;;;;;;;5098535;27;45375;-77
2022/08/08 06:49:40;;;;;;;;;18.00;17.33;;;;;;;;5097920;27;45404;-79
2022/08/08 06:52:06;;;;;;;;;20.33;17.00;;;;;;;;5099233;27;45259;-77
2022/08/08 06:54:31;;;;;;;;;19.33;16.67;;;;;;;;5098576;27;46422;-77
2022/08/08 06:56:58;;;;;;;;;17.67;16.33;;;;;;;;5098735;27;45362;-77
2022/08/08 06:59:23;;;;;;;;;15.67;15.67;;;;;;;;5098679;27;45217;-77
2022/08/08 07:01:53;;;;;;;;;15.00;14.33;;;;;;;;5098975;27;45352;-78
2022/08/08 07:04:24;;;;;;;;;14.33;13.67;;;;;;;;5098485;27;46389;-77
2022/08/08 07:06:56;;;;;;;;;17.00;14.00;;;;;;;;5098409;27;45659;-78
2022/08/08 07:09:25;;;;;;;;;15.00;14.33;;;;;;;;5098571;27;45282;-77
2022/08/08 07:11:52;;;;;;;;;17.67;13.67;;;;;;;;5098787;27;45329;-78
2022/08/08 07:14:20;;;;;;;;;7.33;6.67;;;;;;;;5098280;27;47454;-79
2022/08/08 07:16:45;;;;;;;;;14.67;11.67;;;;;;;;5098330;27;45325;-77
2022/08/08 07:19:22;;;;;;;;;15.00;12.00;;;;;;;;5098535;27;45508;-77
2022/08/08 07:21:49;;;;;;;;;10.33;9.00;;;;;;;;5098776;27;45922;-76
2022/08/08 07:24:24;;;;;;;;;13.67;10.00;;;;;;;;5097455;27;45325;-78
2022/08/08 07:26:51;;;;;;;;;13.67;12.33;;;;;;;;5098299;27;45220;-77
2022/08/08 07:29:17;;;;;;;;;15.67;9.67;;;;;;;;5098029;27;45290;-77
2022/08/08 07:31:42;;;;;;;;;12.33;10.00;;;;;;;;5098400;27;45506;-77
2022/08/08 07:34:09;;;;;;;;;13.00;10.33;;;;;;;;5098082;27;46593;-76
2022/08/08 07:36:34;;;;;;;;;11.67;9.33;;;;;;;;5098203;27;45359;-76
2022/08/08 07:39:00;;;;;;;;;9.00;9.00;;;;;;;;5098046;27;45305;-78
2022/08/08 07:41:26;;;;;;;;;10.67;10.67;;;;;;;;5098311;27;45213;-75
2022/08/08 07:43:54;;;;;;;;;10.67;10.67;;;;;;;;5098098;27;45426;-75
2022/08/08 07:46:19;;;;;;;;;12.00;12.00;;;;;;;;5097897;27;45615;-79
2022/08/08 07:48:45;;;;;;;;;12.33;10.33;;;;;;;;5098179;27;45385;-76
2022/08/08 07:51:10;;;;;;;;;11.33;10.33;;;;;;;;5098385;27;45375;-75
2022/08/08 07:53:54;;;;;;;;;13.67;9.00;;;;;;;;5097778;27;46275;-77
2022/08/08 07:56:20;;;;;;;;;10.00;8.67;;;;;;;;5098033;27;45229;-77
2022/08/08 07:58:47;;;;;;;;;12.00;9.67;;;;;;;;5098044;27;45407;-77
2022/08/08 08:01:14;;;;;;;;;9.67;8.67;;;;;;;;5101809;27;45335;-78
2022/08/08 08:03:57;;;;;;;;;8.00;7.00;;;;;;;;5101209;27;46474;-78
2022/08/08 08:06:24;;;;;;;;;11.33;10.33;;;;;;;;5101238;27;45437;-79
2022/08/08 08:08:59;;;;;;;;;15.00;10.00;;;;;;;;5083119;27;45272;-77
2022/08/08 08:11:27;;;;;;;;;12.00;8.00;;;;;;;;5101898;27;45289;-76
2022/08/08 08:13:52;;;;;;;;;13.00;11.33;;;;;;;;5101109;27;46395;-79
2022/08/08 08:16:19;;;;;;;;;9.67;9.33;;;;;;;;5101394;27;45350;-78
2022/08/08 08:18:46;;;;;;;;;13.00;11.33;;;;;;;;5101349;27;45445;-78
2022/08/08 08:21:11;;;;;;;;;12.33;11.00;;;;;;;;5101331;27;45434;-78
2022/08/08 08:23:37;;;;;;;;;11.00;9.67;;;;;;;;5101040;27;46366;-78
2022/08/08 08:26:03;;;;;;;;;12.67;10.33;;;;;;;;5101148;27;45335;-77
2022/08/08 08:28:28;;;;;;;;;14.00;11.33;;;;;;;;5101400;27;45336;-77
2022/08/08 08:30:53;;;;;;;;;10.33;9.00;;;;;;;;5101389;27;45396;-80
2022/08/08 08:33:18;;;;;;;;;9.00;9.00;;;;;;;;5100919;27;45623;-77
2022/08/08 08:35:44;;;;;;;;;8.33;6.33;;;;;;;;5101425;27;45420;-79
2022/08/08 08:38:09;;;;;;;;;8.00;8.00;;;;;;;;5101064;27;45293;-76
2022/08/08 08:40:34;;;;;;;;;9.33;9.33;;;;;;;;5101123;27;45438;-77
2022/08/08 08:43:00;;;;;;;;;7.33;7.00;;;;;;;;5100704;27;45515;-78
2022/08/08 08:45:26;;;;;;;;;11.33;10.33;;;;;;;;5101029;27;45301;-76
2022/08/08 08:47:52;;;;;;;;;9.67;8.67;;;;;;;;5101097;27;45439;-77
2022/08/08 08:50:17;;;;;;;;;18.00;10.33;;;;;;;;5101077;27;45422;-77
2022/08/08 08:52:44;;;;;;;;;14.33;12.00;;;;;;;;5082004;27;46381;-76
2022/08/08 08:55:14;;;;;;;;;8.33;8.33;;;;;;;;5100655;27;45290;-76
2022/08/08 08:57:41;;;;;;;;;8.00;8.00;;;;;;;;5100495;27;45294;-79
2022/08/08 09:00:07;;;;;;;;;13.33;8.67;;;;;;;;5101026;27;45416;-78
2022/08/08 09:02:33;;;;;;;;;7.33;7.33;;;;;;;;5100468;27;46541;-79
2022/08/08 09:05:01;;;;;;;;;10.00;8.00;;;;;;;;5100407;27;45297;-77
2022/08/08 09:07:27;;;;;;;;;11.33;9.33;;;;;;;;5100551;27;45340;-76
2022/08/08 09:09:53;;;;;;;;;13.67;10.00;;;;;;;;5100666;27;45342;-76
2022/08/08 09:12:20;;;;;;;;;9.67;8.00;;;;;;;;5100338;27;45363;-78
2022/08/08 09:14:47;;;;;;;;;9.67;9.67;;;;;;;;5100307;27;45249;-77
2022/08/08 09:17:13;;;;;;;;;13.33;10.67;;;;;;;;5100310;27;45434;-78
2022/08/08 09:19:39;;;;;;;;;10.67;9.00;;;;;;;;5100347;27;45378;-75
2022/08/08 09:22:05;;;;;;;;;10.67;9.00;;;;;;;;5100171;27;45441;-78
2022/08/08 09:24:31;;;;;;;;;9.33;8.33;;;;;;;;5100124;27;45540;-79
2022/08/08 09:27:12;;;;;;;;;9.33;8.33;;;;;;;;5100197;27;45323;-78
2022/08/08 09:29:55;;;;;;;;;6.67;6.67;;;;;;;;5100477;27;45478;-77
2022/08/08 09:32:29;;;;;;;;;8.67;8.00;;;;;;;;5099922;27;47412;-77
2022/08/08 09:34:57;;;;;;;;;7.67;6.33;;;;;;;;5100154;27;45490;-74
2022/08/08 09:37:26;;;;;;;;;6.33;5.33;;;;;;;;5100362;27;45313;-79
2022/08/08 09:39:57;;;;;;;;;6.67;6.00;;;;;;;;5081740;27;45459;-78
2022/08/08 09:42:26;;;;;;;;;4.00;4.00;;;;;;;;5099745;27;46426;-77
2022/08/08 09:44:58;;;;;;;;;5.00;5.00;;;;;;;;5100025;27;45320;-78
2022/08/08 09:47:27;;;;;;;;;7.00;5.00;;;;;;;;5099987;27;45484;-79
2022/08/08 09:49:54;;;;;;;;;5.00;5.00;;;;;;;;5099979;27;45283;-77
2022/08/08 09:52:22;;;;;;;;;9.00;8.00;;;;;;;;5099753;27;45468;-78
2022/08/08 09:54:48;;;;;;;;;9.00;6.00;;;;;;;;5099593;27;45257;-76
2022/08/08 09:57:17;;;;;;;;;7.00;5.67;;;;;;;;5099856;27;45392;-77
2022/08/08 09:59:42;;;;;;;;;6.67;5.00;;;;;;;;5099879;27;45458;-76
2022/08/08 10:02:17;;;;;;;;;9.00;7.67;;;;;;;;5099527;27;45388;-77
2022/08/08 10:04:42;;;;;;;;;5.00;5.00;;;;;;;;5099492;27;45450;-80
2022/08/08 10:07:10;;;;;;;;;6.00;4.00;;;;;;;;5099497;27;45427;-78
2022/08/08 10:09:37;;;;;;;;;4.00;4.00;;;;;;;;5099758;27;45520;-79
2022/08/08 10:12:03;;;;;;;;;5.67;5.33;;;;;;;;5099597;27;45421;-79
2022/08/08 10:14:32;;;;;;;;;4.67;4.67;;;;;;;;5099384;27;45409;-81
2022/08/08 10:16:57;;;;;;;;;2.67;2.67;;;;;;;;5099386;27;45367;-78
2022/08/08 10:19:32;;;;;;;;;3.00;3.00;;;;;;;;5099614;27;45368;-77
2022/08/08 10:21:58;;;;;;;;;4.67;4.67;;;;;;;;5098773;27;46440;-80
2022/08/08 10:24:23;;;;;;;;;5.33;3.67;;;;;;;;5099299;27;45355;-78
2022/08/08 10:26:52;;;;;;;;;5.50;5.00;;;;;;;;5099834;27;45420;-79
2022/08/08 10:29:40;;;;;;;;;7.75;4.75;;;;;;;;5099275;27;45407;-78
2022/08/08 10:35:01;;;;;;;;;4.00;3.00;;;;;;;;5098978;27;45398;-79
2022/08/08 10:37:30;;;;;;;;;6.00;4.75;;;;;;;;5098936;27;45368;-80
2022/08/08 10:39:56;;;;;;;;;6.25;6.25;;;;;;;;5099280;27;45206;-81
2022/08/08 10:42:22;;;;;;;;;5.25;3.50;;;;;;;;5099015;27;46548;-76
2022/08/08 10:44:47;;;;;;;;;6.00;5.75;;;;;;;;5099074;27;45325;-78
2022/08/08 10:47:16;;;;;;;;;5.00;4.75;;;;;;;;5098900;27;45205;-76
2022/08/08 10:49:49;;;;;;;;;5.75;4.25;;;;;;;;5098873;27;45461;-78
2022/08/08 10:52:22;;;;;;;;;5.25;5.25;;;;;;;;5098782;27;45197;-79
2022/08/08 10:54:51;;;;;;;;;4.00;4.00;;;;;;;;5098759;27;45431;-77
2022/08/08 10:57:16;;;;;;;;;5.25;4.00;;;;;;;;5099009;27;45254;-78
2022/08/08 10:59:44;;;;;;;;;7.25;7.25;;;;;;;;5098990;27;45349;-77
2022/08/08 11:02:09;;;;;;;;;7.25;5.75;;;;;;;;5097815;27;45517;-78
2022/08/08 11:04:43;;;;;;;;;3.75;3.75;;;;;;;;5098490;27;45322;-75
2022/08/08 11:07:08;;;;;;;;;4.50;4.50;;;;;;;;5098726;27;45309;-77
2022/08/08 11:09:33;;;;;;;;;7.25;4.00;;;;;;;;5098918;27;45300;-75
2022/08/08 11:12:01;;;;;;;;;5.00;4.00;;;;;;;;5098551;27;46120;-79
2022/08/08 11:14:26;;;;;;;;;7.00;4.00;;;;;;;;5098689;27;45264;-80
2022/08/08 11:16:52;;;;;;;;;7.67;5.00;;;;;;;;5098415;27;45264;-74
2022/08/08 11:19:19;;;;;;;;;3.67;3.67;;;;;;;;5098948;27;45320;-77
2022/08/08 11:21:44;;;;;;;;;6.00;4.67;;;;;;;;5098125;27;45592;-79
2022/08/08 11:24:10;;;;;;;;;4.00;4.00;;;;;;;;5098235;27;45384;-78
2022/08/08 11:26:37;;;;;;;;;4.67;4.67;;;;;;;;5097997;27;45383;-78
2022/08/08 11:29:03;;;;;;;;;6.33;4.00;;;;;;;;5098398;27;45376;-79
2022/08/08 11:31:37;;;;;;;;;6.33;4.67;;;;;;;;5098349;27;46423;-80
2022/08/08 11:34:04;;;;;;;;;5.00;5.00;;;;;;;;5097169;27;45411;-77
2022/08/08 11:36:33;;;;;;;;;5.33;5.33;;;;;;;;5098375;27;45340;-78
2022/08/08 11:38:58;;;;;;;;;5.33;4.67;;;;;;;;5098516;27;45390;-80
2022/08/08 11:41:24;;;;;;;;;5.00;5.00;;;;;;;;5098029;27;45522;-78
2022/08/08 11:43:52;;;;;;;;;5.00;4.00;;;;;;;;5098258;27;45261;-77
2022/08/08 11:46:18;;;;;;;;;1.67;1.67;;;;;;;;5098384;27;45365;-77
2022/08/08 11:48:44;;;;;;;;;5.00;5.00;;;;;;;;5098085;27;45352;-79
2022/08/08 11:51:09;;;;;;;;;6.00;6.00;;;;;;;;5098151;27;46793;-78
2022/08/08 11:53:35;;;;;;;;;5.00;5.00;;;;;;;;5097828;27;45452;-79
2022/08/08 11:56:00;;;;;;;;;11.33;6.00;;;;;;;;5098149;27;45403;-80
2022/08/08 11:58:32;;;;;;;;;3.67;3.67;;;;;;;;5098386;27;45277;-81
2022/08/08 12:00:57;;;;;;;;;6.33;4.67;;;;;;;;5097861;27;47507;-79
2022/08/08 12:03:24;;;;;;;;;4.33;4.33;;;;;;;;5098039;27;45361;-78
2022/08/08 12:05:50;;;;;;;;;4.33;3.67;;;;;;;;5097792;27;45374;-76
2022/08/08 12:08:16;;;;;;;;;3.00;3.00;;;;;;;;5098195;27;45262;-81
2022/08/08 12:10:48;;;;;;;;;8.00;8.00;;;;;;;;5098112;27;45467;-80
2022/08/08 12:13:14;;;;;;;;;6.00;4.00;;;;;;;;5097739;27;45403;-80
2022/08/08 12:15:46;;;;;;;;;7.33;5.67;;;;;;;;5097816;27;45229;-78
2022/08/08 12:18:13;;;;;;;;;5.00;4.33;;;;;;;;5097820;27;45332;-75
2022/08/08 12:20:39;;;;;;;;;6.00;4.33;;;;;;;;5097572;27;45373;-78
2022/08/08 12:23:04;;;;;;;;;4.00;4.00;;;;;;;;5097602;27;45340;-83
2022/08/08 12:25:31;;;;;;;;;4.00;4.00;;;;;;;;5097758;27;45361;-82
2022/08/08 12:28:08;;;;;;;;;4.00;3.67;;;;;;;;5098016;27;45291;-80
2022/08/08 12:30:34;;;;;;;;;12.00;8.00;;;;;;;;5078597;27;47103;-77
2022/08/08 12:33:00;;;;;;;;;4.00;4.00;;;;;;;;5097649;27;45206;-78
2022/08/08 12:35:27;;;;;;;;;4.33;4.00;;;;;;;;5097571;27;45418;-83
2022/08/08 12:38:06;;;;;;;;;9.33;5.00;;;;;;;;5097681;27;45318;-78
2022/08/08 12:40:42;;;;;;;;;7.67;5.67;;;;;;;;5097468;27;46469;-80
2022/08/08 12:43:08;;;;;;;;;3.00;3.00;;;;;;;;5097533;27;45281;-78
2022/08/08 12:45:35;;;;;;;;;5.33;4.00;;;;;;;;5098977;27;45274;-79
2022/08/08 12:48:01;;;;;;;;;5.67;5.67;;;;;;;;5101303;27;45218;-81
2022/08/08 12:50:36;;;;;;;;;4.33;4.00;;;;;;;;5100122;27;45348;-78
2022/08/08 12:53:01;;;;;;;;;7.00;5.00;;;;;;;;5100686;27;45447;-80
2022/08/08 12:55:27;;;;;;;;;4.00;4.00;;;;;;;;5101056;27;45408;-80
2022/08/08 12:57:52;;;;;;;;;3.33;3.33;;;;;;;;5100937;27;45423;-78
2022/08/08 13:00:26;;;;;;;;;1.33;1.33;;;;;;;;5100919;27;46501;-81
2022/08/08 13:02:56;;;;;;;;;4.67;3.67;;;;;;;;5100911;27;45360;-80
2022/08/08 13:05:23;;;;;;;;;3.67;3.67;;;;;;;;5100221;27;45351;-79
2022/08/08 13:07:48;;;;;;;;;4.67;4.00;;;;;;;;5100956;27;45349;-79
2022/08/08 13:10:14;;;;;;;;;4.33;3.00;;;;;;;;5100232;27;46559;-79
2022/08/08 13:12:40;;;;;;;;;6.00;5.00;;;;;;;;5100648;27;45422;-80
2022/08/08 13:15:06;;;;;;;;;5.33;4.67;;;;;;;;5100750;27;45304;-78
2022/08/08 13:17:33;;;;;;;;;6.00;3.33;;;;;;;;5100456;27;45258;-79
2022/08/08 13:19:58;;;;;;;;;4.33;4.33;;;;;;;;5100077;27;45416;-80
2022/08/08 13:22:23;;;;;;;;;6.33;4.00;;;;;;;;5100170;27;45409;-76
2022/08/08 13:24:49;;;;;;;;;4.33;4.33;;;;;;;;5100399;27;45753;-78
2022/08/08 13:27:16;;;;;;;;;4.00;4.00;;;;;;;;5100785;27;45427;-82
2022/08/08 13:29:54;;;;;;;;;3.67;3.00;;;;;;;;5100123;27;45731;-79
2022/08/08 13:32:24;;;;;;;;;4.00;4.00;;;;;;;;5100189;27;45286;-81
2022/08/08 13:34:50;;;;;;;;;4.00;4.00;;;;;;;;5100341;27;45463;-80
2022/08/08 13:37:16;;;;;;;;;4.67;4.00;;;;;;;;5100553;27;45347;-81
2022/08/08 13:39:42;;;;;;;;;4.33;4.00;;;;;;;;5099967;27;46612;-81
2022/08/08 13:42:07;;;;;;;;;5.33;5.33;;;;;;;;5100105;27;45271;-81
2022/08/08 13:44:33;;;;;;;;;3.00;3.00;;;;;;;;5100167;27;45257;-81
2022/08/08 13:46:59;;;;;;;;;4.00;4.00;;;;;;;;5100365;27;45283;-80
2022/08/08 13:49:27;;;;;;;;;5.33;4.67;;;;;;;;5099985;27;46214;-79
2022/08/08 13:51:53;;;;;;;;;6.00;4.67;;;;;;;;5099697;27;45304;-81
2022/08/08 13:54:20;;;;;;;;;4.00;2.33;;;;;;;;5100017;27;45422;-79
2022/08/08 13:56:45;;;;;;;;;4.67;4.67;;;;;;;;5099110;27;45475;-77
2022/08/08 13:59:10;;;;;;;;;5.33;4.00;;;;;;;;5099552;27;45285;-81
2022/08/08 14:01:35;;;;;;;;;4.67;4.67;;;;;;;;5099926;27;45316;-79
2022/08/08 14:04:01;;;;;;;;;5.67;4.00;;;;;;;;5099961;27;45246;-78
2022/08/08 14:06:27;;;;;;;;;5.00;5.00;;;;;;;;5099761;27;45438;-80
2022/08/08 14:08:53;;;;;;;;;8.00;6.00;;;;;;;;5099587;27;45457;-81
2022/08/08 14:11:20;;;;;;;;;6.00;5.00;;;;;;;;5099482;27;45265;-77
2022/08/08 14:13:46;;;;;;;;;4.67;4.67;;;;;;;;5099916;27;45368;-81
2022/08/08 14:16:11;;;;;;;;;5.00;5.00;;;;;;;;5099889;27;45250;-79
2022/08/08 14:18:37;;;;;;;;;4.00;4.00;;;;;;;;5099352;27;46403;-78
2022/08/08 14:21:03;;;;;;;;;6.00;5.00;;;;;;;;5099405;27;45424;-80
2022/08/08 14:23:39;;;;;;;;;5.67;5.67;;;;;;;;5099476;27;45482;-81
2022/08/08 14:26:05;;;;;;;;;5.00;5.00;;;;;;;;5099630;27;45390;-82
2022/08/08 14:28:30;;;;;;;;;8.00;5.00;;;;;;;;5080479;27;46924;-83
2022/08/08 14:31:05;;;;;;;;;5.00;5.00;;;;;;;;5099064;27;45395;-78
2022/08/08 14:33:30;;;;;;;;;8.00;8.00;;;;;;;;5099483;27;45327;-79
2022/08/08 14:36:03;;;;;;;;;6.33;6.33;;;;;;;;5099500;27;45296;-79
2022/08/08 14:38:29;;;;;;;;;7.00;7.00;;;;;;;;5099102;27;46407;-82
2022/08/08 14:40:55;;;;;;;;;6.67;6.67;;;;;;;;5098771;27;45495;-80
2022/08/08 14:43:23;;;;;;;;;9.00;7.67;;;;;;;;5099172;27;45467;-80
2022/08/08 14:45:49;;;;;;;;;8.00;8.00;;;;;;;;5099527;27;45392;-81